KSVN/SVN METAR and TAF weather

Enter ICAO airport designator
Station Type Date Time Source
KSVN METAR 2022/12/09 21:55 UTC NOAA

KSVN 092155Z AUTO 08009KT 10SM OVC006 16/15 A3009 RMK AO2 SLP193 T01620149 $


Station Type Date Time Source
KSVN Decoded METAR 2022/12/09 21:55 UTC NOAA

Hunter U. S. Army Airfield , GA, United States (KSVN) 32-01N 081-09W
Dec 09, 2022 - 04:55 PM EST / 2022.12.09 2155 UTC
Wind: from the E (080 degrees) at 10 MPH (9 KT):0
Visibility: 10 mile(s):0
Sky conditions: overcast
Temperature: 61.2 F (16.2 C)
Dew Point: 58.8 F (14.9 C)
Relative Humidity: 92%
Pressure (altimeter): 30.09 in. Hg (1018 hPa)
ob: KSVN 092155Z AUTO 08009KT 10SM OVC006 16/15 A3009 RMK AO2 SLP193 T01620149
cycle: 22

Station Type Date Time Source
KSVN TAF 2022/12/09 21:59 UTC NOAA

TAF KSVN 092055Z 0921/1103 07009KT 9999 OVC006 QNH3007INS
BECMG 1005/1006 05004KT 9999 VCSH OVC005 QNH3010INS
TEMPO 1005/1012 4800 RA BR
BECMG 1012/1013 05006KT 9999 OVC006 QNH3017INS
BECMG 1018/1019 04008KT 9999 BKN007 OVC015 QNH3015INS TX18/0921Z TN13/1012Z LAST NO
AMDS AFT 1004 NEXT 1203

Example: see airport list